createdAt,value
2022-12-24T00:00:29.846Z,51.13
2022-12-24T00:05:32.879Z,56.87
2022-12-24T00:10:35.881Z,58.23
2022-12-24T00:15:38.771Z,51.13
2022-12-24T00:20:41.969Z,42.30
2022-12-24T00:25:45.934Z,41.10
2022-12-24T00:30:48.735Z,43.47
2022-12-24T00:35:53.307Z,43.43
2022-12-24T00:41:01.761Z,46.50
2022-12-24T00:46:05.273Z,65.33
2022-12-24T00:51:08.458Z,46.00
2022-12-24T00:56:11.454Z,48.03
2022-12-24T01:01:15.661Z,45.30
2022-12-24T01:06:21.641Z,49.97
2022-12-24T01:11:25.331Z,46.77
2022-12-24T01:16:28.254Z,61.83
2022-12-24T01:21:31.208Z,50.17
2022-12-24T01:26:34.289Z,59.00
2022-12-24T01:31:37.525Z,50.80
2022-12-24T01:36:40.888Z,45.97
2022-12-24T01:42:03.121Z,65.30
2022-12-24T01:47:25.791Z,56.60
2022-12-24T01:52:34.700Z,55.27
2022-12-24T01:57:48.236Z,66.23
2022-12-24T02:02:54.135Z,55.97
2022-12-24T02:07:59.787Z,72.97
2022-12-24T02:13:04.311Z,63.23
2022-12-24T02:18:52.227Z,56.87
2022-12-24T02:24:29.069Z,71.30
2022-12-24T02:30:05.756Z,56.87
2022-12-24T02:35:12.899Z,56.10
2022-12-24T02:40:23.631Z,61.90
2022-12-24T02:45:31.821Z,40.47
2022-12-24T02:50:36.046Z,49.97
2022-12-24T02:56:08.210Z,75.13
2022-12-24T03:01:29.300Z,65.63
2022-12-24T03:06:52.645Z,58.80
2022-12-24T03:12:10.176Z,44.77
2022-12-24T03:17:13.695Z,63.63
2022-12-24T03:22:18.142Z,62.23
2022-12-24T03:27:21.699Z,71.37
2022-12-24T03:32:31.039Z,79.60
2022-12-24T03:37:34.165Z,50.47
2022-12-24T03:42:37.205Z,59.93
2022-12-24T03:47:40.335Z,42.53
2022-12-24T03:52:44.110Z,44.13
2022-12-24T03:57:47.168Z,50.40
2022-12-24T04:02:50.136Z,37.70
2022-12-24T04:07:53.230Z,32.93
2022-12-24T04:12:56.175Z,28.83
2022-12-24T04:17:59.062Z,30.57
2022-12-24T04:23:01.874Z,29.20
2022-12-24T04:28:04.846Z,25.47
2022-12-24T04:33:07.860Z,22.47
2022-12-24T04:38:11.196Z,22.73
2022-12-24T04:43:14.583Z,18.87
2022-12-24T04:48:17.481Z,17.87
2022-12-24T04:53:20.466Z,16.50
2022-12-24T04:58:23.491Z,17.70
2022-12-24T05:03:27.273Z,14.30
2022-12-24T05:08:30.211Z,12.03
2022-12-24T05:13:44.155Z,12.80
2022-12-24T05:18:49.742Z,21.73
2022-12-24T05:24:12.059Z,30.60
2022-12-24T05:29:15.235Z,28.47
2022-12-24T05:34:18.223Z,32.23
2022-12-24T05:39:21.442Z,33.47
2022-12-24T05:44:24.336Z,22.27
2022-12-24T05:49:27.546Z,14.67
2022-12-24T05:54:30.613Z,9.47
2022-12-24T05:59:33.674Z,8.37
2022-12-24T06:04:37.837Z,8.60
2022-12-24T06:09:40.729Z,8.63
2022-12-24T06:14:43.662Z,5.63
2022-12-24T06:19:46.545Z,7.50
2022-12-24T06:24:49.429Z,6.87
2022-12-24T06:29:52.369Z,19.60
2022-12-24T06:34:55.221Z,20.33
2022-12-24T06:39:58.081Z,7.83
2022-12-24T06:45:07.634Z,7.37
2022-12-24T06:50:12.042Z,19.60
2022-12-24T06:55:15.174Z,19.67
2022-12-24T07:00:18.670Z,25.17
2022-12-24T07:05:22.813Z,27.70
2022-12-24T07:10:25.814Z,22.00
2022-12-24T07:15:29.159Z,33.57
2022-12-24T07:20:32.281Z,31.43
2022-12-24T07:25:35.584Z,55.20
2022-12-24T07:30:38.620Z,54.07
2022-12-24T07:35:41.331Z,44.23
2022-12-24T07:40:44.219Z,40.33
2022-12-24T07:45:47.140Z,40.50
2022-12-24T07:50:51.118Z,48.03
2022-12-24T07:55:54.341Z,62.90
2022-12-24T08:01:01.024Z,65.10
2022-12-24T08:06:04.370Z,49.37
2022-12-24T08:11:07.931Z,43.90
2022-12-24T08:16:11.052Z,52.67
2022-12-24T08:21:14.311Z,44.10
2022-12-24T08:26:17.383Z,42.47
2022-12-24T08:31:20.421Z,55.17
2022-12-24T08:36:23.457Z,48.93
2022-12-24T08:41:26.378Z,12.30
2022-12-24T08:46:29.368Z,10.83
2022-12-24T08:51:32.392Z,5.30
2022-12-24T08:56:35.566Z,6.50
2022-12-24T09:01:39.070Z,4.47
2022-12-24T09:06:42.080Z,3.23
2022-12-24T09:11:45.699Z,3.70
2022-12-24T09:16:49.731Z,1.50
2022-12-24T09:21:52.828Z,1.30
2022-12-24T09:26:57.907Z,2.57
2022-12-24T09:32:01.262Z,2.97
2022-12-24T09:37:04.413Z,2.23
2022-12-24T09:42:37.501Z,2.50
2022-12-24T09:47:52.828Z,1.83
2022-12-24T09:52:57.503Z,1.40
2022-12-24T09:58:04.456Z,1.33
2022-12-24T10:03:16.735Z,3.20
2022-12-24T10:08:41.375Z,3.03
2022-12-24T10:14:26.557Z,4.33
2022-12-24T10:20:17.460Z,1.63
2022-12-24T10:25:34.538Z,3.30
2022-12-24T10:30:37.478Z,3.40
2022-12-24T10:35:49.101Z,4.77
2022-12-24T10:40:56.121Z,2.97
2022-12-24T10:46:04.845Z,2.57
2022-12-24T10:51:35.802Z,1.80
2022-12-24T10:57:04.687Z,3.17
2022-12-24T11:02:38.120Z,3.97
2022-12-24T11:07:41.580Z,2.60
2022-12-24T11:13:05.789Z,2.03
2022-12-24T11:18:16.025Z,1.40
2022-12-24T11:23:21.023Z,2.50
2022-12-24T11:28:33.686Z,2.43
2022-12-24T11:33:52.904Z,2.40
2022-12-24T11:38:58.464Z,1.17
2022-12-24T11:44:07.908Z,1.83
2022-12-24T11:49:37.239Z,3.10
2022-12-24T11:55:18.126Z,2.60
2022-12-24T12:00:21.307Z,2.27
2022-12-24T12:05:43.126Z,1.60
2022-12-24T12:10:49.641Z,2.70
2022-12-24T12:16:05.847Z,2.53
2022-12-24T12:21:21.229Z,3.83
2022-12-24T12:26:32.321Z,2.83
2022-12-24T12:37:15.249Z,4.77
2022-12-24T12:42:35.673Z,3.27
2022-12-24T12:48:08.343Z,2.70
2022-12-24T12:53:24.266Z,2.13
2022-12-24T12:58:33.266Z,3.93
2022-12-24T13:04:05.891Z,1.67
2022-12-24T13:09:17.628Z,1.37
2022-12-24T13:15:04.164Z,2.07
2022-12-24T13:20:14.934Z,1.73
2022-12-24T13:25:45.253Z,3.80
2022-12-24T13:30:53.308Z,4.33
2022-12-24T13:36:16.665Z,4.07
2022-12-24T13:41:41.184Z,1.67
2022-12-24T13:47:25.402Z,3.50
2022-12-24T13:52:32.872Z,2.80
2022-12-24T13:57:45.459Z,1.47
2022-12-24T14:03:04.513Z,4.63
2022-12-24T14:08:26.390Z,1.37
2022-12-24T14:13:38.511Z,3.10
2022-12-24T14:18:46.122Z,1.30
2022-12-24T14:24:14.270Z,1.80
2022-12-24T14:29:32.060Z,2.47
2022-12-24T14:34:34.954Z,4.53
2022-12-24T14:39:48.105Z,1.87
2022-12-24T14:45:09.244Z,1.97
2022-12-24T14:50:40.544Z,1.35
2022-12-24T14:55:45.986Z,1.83
2022-12-24T15:00:49.942Z,2.43
2022-12-24T15:06:19.192Z,3.30
2022-12-24T15:11:24.396Z,3.10
2022-12-24T15:16:37.179Z,2.13
2022-12-24T15:21:44.293Z,3.53
2022-12-24T15:26:47.316Z,1.70
2022-12-24T15:32:02.112Z,2.10
2022-12-24T15:37:19.649Z,1.60
2022-12-24T15:42:24.464Z,1.47
2022-12-24T15:47:39.700Z,3.67
2022-12-24T15:52:44.026Z,2.17
2022-12-24T15:57:47.627Z,2.60
2022-12-24T16:02:51.117Z,3.50
2022-12-24T16:08:16.877Z,2.37
2022-12-24T16:13:29.175Z,2.20
2022-12-24T16:18:36.806Z,2.23
2022-12-24T16:23:48.741Z,2.50
2022-12-24T16:28:51.669Z,2.10
2022-12-24T16:33:57.926Z,4.47
2022-12-24T16:39:20.468Z,3.17
2022-12-24T16:44:23.450Z,1.87
2022-12-24T16:49:27.278Z,1.67
2022-12-24T16:54:30.210Z,4.70
2022-12-24T16:59:33.025Z,4.47
2022-12-24T17:04:36.320Z,3.43
2022-12-24T17:09:39.231Z,4.40
2022-12-24T17:14:42.556Z,7.20
2022-12-24T17:19:45.429Z,2.60
2022-12-24T17:24:48.850Z,3.03
2022-12-24T17:29:52.163Z,3.23
2022-12-24T17:34:55.030Z,4.80
2022-12-24T17:39:57.986Z,6.93
2022-12-24T17:45:01.038Z,5.80
2022-12-24T17:50:04.601Z,14.97
2022-12-24T17:55:09.049Z,8.00
2022-12-24T18:00:13.195Z,6.37
2022-12-24T18:05:16.328Z,7.83
2022-12-24T18:10:19.602Z,13.50
2022-12-24T18:15:22.993Z,10.63
2022-12-24T18:20:26.094Z,7.37
2022-12-24T18:25:28.931Z,7.77
2022-12-24T18:30:32.086Z,9.20
2022-12-24T18:35:34.845Z,7.27
2022-12-24T18:40:38.041Z,4.27
2022-12-24T18:45:43.103Z,5.40
2022-12-24T18:50:56.709Z,3.87
2022-12-24T18:56:11.108Z,4.30
2022-12-24T19:01:33.012Z,6.47
2022-12-24T19:06:36.975Z,5.23
2022-12-24T19:11:40.643Z,3.40
2022-12-24T19:16:43.717Z,2.40
2022-12-24T19:21:47.607Z,5.87
2022-12-24T19:26:51.020Z,3.57
2022-12-24T19:31:54.208Z,6.40
2022-12-24T19:36:57.258Z,3.77
2022-12-24T19:42:01.320Z,3.80
2022-12-24T19:47:04.655Z,4.47
2022-12-24T19:52:07.987Z,3.20
2022-12-24T19:57:11.793Z,3.70
2022-12-24T20:02:14.734Z,2.53
2022-12-24T20:07:17.858Z,5.70
2022-12-24T20:12:20.806Z,2.67
2022-12-24T20:17:24.044Z,2.37
2022-12-24T20:22:27.045Z,3.80
2022-12-24T20:27:30.161Z,5.40
2022-12-24T20:32:33.205Z,6.20
2022-12-24T20:37:45.711Z,4.80
2022-12-24T20:42:49.500Z,6.47
2022-12-24T20:47:52.449Z,4.93
2022-12-24T20:52:55.385Z,6.50
2022-12-24T20:57:58.506Z,5.37
2022-12-24T21:03:01.709Z,11.97
2022-12-24T21:08:04.912Z,7.30
2022-12-24T21:13:08.419Z,6.17
2022-12-24T21:18:12.021Z,12.03
2022-12-24T21:23:14.907Z,16.60
2022-12-24T21:28:18.465Z,11.50
2022-12-24T21:33:21.776Z,5.77
2022-12-24T21:38:26.014Z,4.93
2022-12-24T21:43:33.861Z,4.00
2022-12-24T21:48:56.877Z,4.07
2022-12-24T21:54:18.766Z,4.00
2022-12-24T22:04:32.463Z,7.43
2022-12-24T22:09:56.981Z,2.77
2022-12-24T22:15:00.108Z,8.70
2022-12-24T22:20:03.956Z,13.03
2022-12-24T22:25:10.165Z,22.43
2022-12-24T22:30:13.308Z,12.07
2022-12-24T22:35:17.071Z,12.83
2022-12-24T22:40:19.976Z,11.00
2022-12-24T22:45:23.085Z,30.77
2022-12-24T22:50:27.341Z,34.43
2022-12-24T22:55:30.240Z,23.47
2022-12-24T23:00:51.508Z,21.03
2022-12-24T23:06:03.946Z,25.63
2022-12-24T23:11:14.503Z,32.27
2022-12-24T23:16:17.503Z,25.10
2022-12-24T23:21:20.677Z,14.70
2022-12-24T23:26:24.369Z,13.73
2022-12-24T23:31:27.728Z,9.37
2022-12-24T23:36:30.667Z,14.70
2022-12-24T23:41:33.711Z,9.07
2022-12-24T23:46:39.163Z,9.70
2022-12-24T23:51:42.585Z,8.03
2022-12-24T23:56:45.689Z,9.43
